sensor_id;sensor_type;location;lat;lon;timestamp;temperature;humidity
73477;DHT22;61713;51.034;13.756;2022-07-31T00:00:54;16.90;99.90
73477;DHT22;61713;51.034;13.756;2022-07-31T00:03:20;16.90;99.90
73477;DHT22;61713;51.034;13.756;2022-07-31T00:05:45;16.80;99.90
73477;DHT22;61713;51.034;13.756;2022-07-31T00:08:11;16.80;99.90
73477;DHT22;61713;51.034;13.756;2022-07-31T00:10:36;16.70;99.90
73477;DHT22;61713;51.034;13.756;2022-07-31T00:13:02;16.70;99.90
73477;DHT22;61713;51.034;13.756;2022-07-31T00:15:28;16.70;99.90
73477;DHT22;61713;51.034;13.756;2022-07-31T00:17:54;16.70;99.90
73477;DHT22;61713;51.034;13.756;2022-07-31T00:20:19;16.70;99.90
73477;DHT22;61713;51.034;13.756;2022-07-31T00:22:46;16.60;99.90
73477;DHT22;61713;51.034;13.756;2022-07-31T00:25:13;16.60;99.90
73477;DHT22;61713;51.034;13.756;2022-07-31T00:27:40;16.60;99.90
73477;DHT22;61713;51.034;13.756;2022-07-31T00:30:06;16.50;99.90
73477;DHT22;61713;51.034;13.756;2022-07-31T00:32:32;16.60;99.90
73477;DHT22;61713;51.034;13.756;2022-07-31T00:34:57;16.50;99.90
73477;DHT22;61713;51.034;13.756;2022-07-31T00:37:23;16.30;99.90
73477;DHT22;61713;51.034;13.756;2022-07-31T00:39:48;16.50;99.90
73477;DHT22;61713;51.034;13.756;2022-07-31T00:42:25;16.40;99.90
73477;DHT22;61713;51.034;13.756;2022-07-31T00:44:51;16.50;99.90
73477;DHT22;61713;51.034;13.756;2022-07-31T00:47:17;16.40;99.90
73477;DHT22;61713;51.034;13.756;2022-07-31T00:49:44;16.40;99.90
73477;DHT22;61713;51.034;13.756;2022-07-31T00:52:10;16.40;99.90
73477;DHT22;61713;51.034;13.756;2022-07-31T00:54:35;16.40;99.90
73477;DHT22;61713;51.034;13.756;2022-07-31T00:57:02;16.40;99.90
73477;DHT22;61713;51.034;13.756;2022-07-31T00:59:28;16.30;99.90
73477;DHT22;61713;51.034;13.756;2022-07-31T01:01:54;16.30;99.90
73477;DHT22;61713;51.034;13.756;2022-07-31T01:04:20;16.20;99.90
73477;DHT22;61713;51.034;13.756;2022-07-31T01:06:46;16.20;99.90
73477;DHT22;61713;51.034;13.756;2022-07-31T01:09:11;16.20;99.90
73477;DHT22;61713;51.034;13.756;2022-07-31T01:14:24;16.20;99.90
73477;DHT22;61713;51.034;13.756;2022-07-31T01:16:53;16.20;99.90
73477;DHT22;61713;51.034;13.756;2022-07-31T01:19:26;16.20;99.90
73477;DHT22;61713;51.034;13.756;2022-07-31T01:22:08;16.20;99.90
73477;DHT22;61713;51.034;13.756;2022-07-31T01:27:31;16.20;99.90
73477;DHT22;61713;51.034;13.756;2022-07-31T01:30:03;16.20;99.90
73477;DHT22;61713;51.034;13.756;2022-07-31T01:32:34;16.10;99.90
73477;DHT22;61713;51.034;13.756;2022-07-31T01:35:20;16.10;99.90
73477;DHT22;61713;51.034;13.756;2022-07-31T01:37:50;16.10;99.90
73477;DHT22;61713;51.034;13.756;2022-07-31T01:40:24;16.10;99.90
73477;DHT22;61713;51.034;13.756;2022-07-31T01:42:55;16.00;99.90
73477;DHT22;61713;51.034;13.756;2022-07-31T01:45:21;16.00;99.90
73477;DHT22;61713;51.034;13.756;2022-07-31T01:47:49;16.00;99.90
73477;DHT22;61713;51.034;13.756;2022-07-31T01:50:15;16.00;99.90
73477;DHT22;61713;51.034;13.756;2022-07-31T01:52:41;15.90;99.90
73477;DHT22;61713;51.034;13.756;2022-07-31T01:55:08;15.80;99.90
73477;DHT22;61713;51.034;13.756;2022-07-31T01:57:36;15.90;99.90
73477;DHT22;61713;51.034;13.756;2022-07-31T02:00:06;15.80;99.90
73477;DHT22;61713;51.034;13.756;2022-07-31T02:02:33;15.80;99.90
73477;DHT22;61713;51.034;13.756;2022-07-31T02:04:59;15.80;99.90
73477;DHT22;61713;51.034;13.756;2022-07-31T02:07:26;15.80;99.90
73477;DHT22;61713;51.034;13.756;2022-07-31T02:09:52;15.70;99.90
73477;DHT22;61713;51.034;13.756;2022-07-31T02:12:19;15.80;99.90
73477;DHT22;61713;51.034;13.756;2022-07-31T02:14:45;15.80;99.90
73477;DHT22;61713;51.034;13.756;2022-07-31T02:17:13;15.80;99.90
73477;DHT22;61713;51.034;13.756;2022-07-31T02:19:39;15.80;99.90
73477;DHT22;61713;51.034;13.756;2022-07-31T02:22:05;15.70;99.90
73477;DHT22;61713;51.034;13.756;2022-07-31T02:24:32;15.70;99.90
73477;DHT22;61713;51.034;13.756;2022-07-31T02:26:58;15.60;99.90
73477;DHT22;61713;51.034;13.756;2022-07-31T02:29:27;15.60;99.90
73477;DHT22;61713;51.034;13.756;2022-07-31T02:31:55;15.70;99.90
73477;DHT22;61713;51.034;13.756;2022-07-31T02:34:23;15.60;99.90
73477;DHT22;61713;51.034;13.756;2022-07-31T02:36:50;15.60;99.90
73477;DHT22;61713;51.034;13.756;2022-07-31T02:39:16;15.60;99.90
73477;DHT22;61713;51.034;13.756;2022-07-31T02:41:43;15.60;99.90
73477;DHT22;61713;51.034;13.756;2022-07-31T02:44:13;15.60;99.90
73477;DHT22;61713;51.034;13.756;2022-07-31T02:46:41;15.60;99.90
73477;DHT22;61713;51.034;13.756;2022-07-31T02:49:07;15.50;99.90
73477;DHT22;61713;51.034;13.756;2022-07-31T02:51:33;15.50;99.90
73477;DHT22;61713;51.034;13.756;2022-07-31T02:53:59;15.50;99.90
73477;DHT22;61713;51.034;13.756;2022-07-31T02:56:27;15.40;99.90
73477;DHT22;61713;51.034;13.756;2022-07-31T02:58:53;15.40;99.90
73477;DHT22;61713;51.034;13.756;2022-07-31T03:01:18;15.50;99.90
73477;DHT22;61713;51.034;13.756;2022-07-31T03:03:44;15.50;99.90
73477;DHT22;61713;51.034;13.756;2022-07-31T03:06:09;15.40;99.90
73477;DHT22;61713;51.034;13.756;2022-07-31T03:08:35;15.50;99.90
73477;DHT22;61713;51.034;13.756;2022-07-31T03:11:00;15.40;99.90
73477;DHT22;61713;51.034;13.756;2022-07-31T03:13:28;15.30;99.90
73477;DHT22;61713;51.034;13.756;2022-07-31T03:15:55;15.30;99.90
73477;DHT22;61713;51.034;13.756;2022-07-31T03:18:21;15.30;99.90
73477;DHT22;61713;51.034;13.756;2022-07-31T03:20:48;15.20;99.90
73477;DHT22;61713;51.034;13.756;2022-07-31T03:23:20;15.30;99.90
73477;DHT22;61713;51.034;13.756;2022-07-31T03:25:47;15.20;99.90
73477;DHT22;61713;51.034;13.756;2022-07-31T03:28:14;15.20;99.90
73477;DHT22;61713;51.034;13.756;2022-07-31T03:30:39;15.20;99.90
73477;DHT22;61713;51.034;13.756;2022-07-31T03:33:05;15.10;99.90
73477;DHT22;61713;51.034;13.756;2022-07-31T03:35:31;15.10;99.90
73477;DHT22;61713;51.034;13.756;2022-07-31T03:37:58;15.10;99.90
73477;DHT22;61713;51.034;13.756;2022-07-31T03:40:24;15.10;99.90
73477;DHT22;61713;51.034;13.756;2022-07-31T03:42:50;15.20;99.90
73477;DHT22;61713;51.034;13.756;2022-07-31T03:45:18;15.20;99.90
73477;DHT22;61713;51.034;13.756;2022-07-31T03:47:45;15.20;99.90
73477;DHT22;61713;51.034;13.756;2022-07-31T03:50:11;15.20;99.90
73477;DHT22;61713;51.034;13.756;2022-07-31T03:52:37;15.30;99.90
73477;DHT22;61713;51.034;13.756;2022-07-31T03:55:03;15.20;99.90
73477;DHT22;61713;51.034;13.756;2022-07-31T03:57:29;15.00;99.90
73477;DHT22;61713;51.034;13.756;2022-07-31T03:59:56;15.20;99.90
73477;DHT22;61713;51.034;13.756;2022-07-31T04:02:25;15.20;99.90
73477;DHT22;61713;51.034;13.756;2022-07-31T04:04:51;15.30;99.90
73477;DHT22;61713;51.034;13.756;2022-07-31T04:07:16;15.20;99.90
73477;DHT22;61713;51.034;13.756;2022-07-31T04:09:42;15.30;99.90
73477;DHT22;61713;51.034;13.756;2022-07-31T04:12:07;15.20;99.90
73477;DHT22;61713;51.034;13.756;2022-07-31T04:14:33;15.40;99.90
73477;DHT22;61713;51.034;13.756;2022-07-31T04:16:58;15.30;99.90
73477;DHT22;61713;51.034;13.756;2022-07-31T04:19:24;15.40;99.90
73477;DHT22;61713;51.034;13.756;2022-07-31T04:21:49;15.40;99.90
73477;DHT22;61713;51.034;13.756;2022-07-31T04:24:15;15.50;99.90
73477;DHT22;61713;51.034;13.756;2022-07-31T04:26:43;15.50;99.90
73477;DHT22;61713;51.034;13.756;2022-07-31T04:29:08;15.60;99.90
73477;DHT22;61713;51.034;13.756;2022-07-31T04:31:34;15.60;99.90
73477;DHT22;61713;51.034;13.756;2022-07-31T04:33:59;15.60;99.90
73477;DHT22;61713;51.034;13.756;2022-07-31T04:36:25;15.70;99.90
73477;DHT22;61713;51.034;13.756;2022-07-31T04:38:50;15.80;99.90
73477;DHT22;61713;51.034;13.756;2022-07-31T04:41:16;15.80;99.90
73477;DHT22;61713;51.034;13.756;2022-07-31T04:43:42;15.90;99.90
73477;DHT22;61713;51.034;13.756;2022-07-31T04:46:07;16.00;99.90
73477;DHT22;61713;51.034;13.756;2022-07-31T04:48:33;16.10;99.90
73477;DHT22;61713;51.034;13.756;2022-07-31T04:50:59;16.20;99.90
73477;DHT22;61713;51.034;13.756;2022-07-31T04:53:25;16.20;99.90
73477;DHT22;61713;51.034;13.756;2022-07-31T04:55:50;16.30;99.90
73477;DHT22;61713;51.034;13.756;2022-07-31T04:58:34;16.30;99.90
73477;DHT22;61713;51.034;13.756;2022-07-31T05:01:01;16.30;99.90
73477;DHT22;61713;51.034;13.756;2022-07-31T05:03:26;16.40;99.90
73477;DHT22;61713;51.034;13.756;2022-07-31T05:05:52;16.50;99.90
73477;DHT22;61713;51.034;13.756;2022-07-31T05:08:17;16.60;99.90
73477;DHT22;61713;51.034;13.756;2022-07-31T05:10:43;16.60;99.90
73477;DHT22;61713;51.034;13.756;2022-07-31T05:13:27;16.80;99.90
73477;DHT22;61713;51.034;13.756;2022-07-31T05:15:53;16.90;99.90
73477;DHT22;61713;51.034;13.756;2022-07-31T05:18:18;17.00;99.90
73477;DHT22;61713;51.034;13.756;2022-07-31T05:20:43;17.10;99.90
73477;DHT22;61713;51.034;13.756;2022-07-31T05:23:09;17.30;99.90
73477;DHT22;61713;51.034;13.756;2022-07-31T05:25:34;17.40;99.90
73477;DHT22;61713;51.034;13.756;2022-07-31T05:28:00;16.80;99.90
73477;DHT22;61713;51.034;13.756;2022-07-31T05:30:25;17.50;99.90
73477;DHT22;61713;51.034;13.756;2022-07-31T05:32:51;17.50;99.90
73477;DHT22;61713;51.034;13.756;2022-07-31T05:35:16;17.60;99.90
73477;DHT22;61713;51.034;13.756;2022-07-31T05:37:42;17.90;99.90
73477;DHT22;61713;51.034;13.756;2022-07-31T05:40:08;17.80;99.90
73477;DHT22;61713;51.034;13.756;2022-07-31T05:42:33;18.00;99.90
73477;DHT22;61713;51.034;13.756;2022-07-31T05:44:59;18.00;99.90
73477;DHT22;61713;51.034;13.756;2022-07-31T05:47:24;18.00;99.90
73477;DHT22;61713;51.034;13.756;2022-07-31T05:49:50;18.10;99.90
73477;DHT22;61713;51.034;13.756;2022-07-31T05:52:18;18.20;99.90
73477;DHT22;61713;51.034;13.756;2022-07-31T05:54:44;18.20;99.90
73477;DHT22;61713;51.034;13.756;2022-07-31T05:57:10;18.40;99.90
73477;DHT22;61713;51.034;13.756;2022-07-31T05:59:35;18.40;99.90
73477;DHT22;61713;51.034;13.756;2022-07-31T06:02:01;18.50;99.90
73477;DHT22;61713;51.034;13.756;2022-07-31T06:04:26;18.60;99.90
73477;DHT22;61713;51.034;13.756;2022-07-31T06:06:52;18.90;99.90
73477;DHT22;61713;51.034;13.756;2022-07-31T06:09:17;19.10;99.90
73477;DHT22;61713;51.034;13.756;2022-07-31T06:11:43;19.40;99.90
73477;DHT22;61713;51.034;13.756;2022-07-31T06:14:08;19.40;99.90
73477;DHT22;61713;51.034;13.756;2022-07-31T06:16:34;19.50;99.90
73477;DHT22;61713;51.034;13.756;2022-07-31T06:19:00;19.50;99.90
73477;DHT22;61713;51.034;13.756;2022-07-31T06:21:25;19.60;99.90
73477;DHT22;61713;51.034;13.756;2022-07-31T06:23:50;19.70;99.90
73477;DHT22;61713;51.034;13.756;2022-07-31T06:26:16;19.80;99.90
73477;DHT22;61713;51.034;13.756;2022-07-31T06:28:41;19.70;99.90
73477;DHT22;61713;51.034;13.756;2022-07-31T06:31:07;20.00;99.90
73477;DHT22;61713;51.034;13.756;2022-07-31T06:33:32;20.10;99.90
73477;DHT22;61713;51.034;13.756;2022-07-31T06:35:58;19.90;99.90
73477;DHT22;61713;51.034;13.756;2022-07-31T06:38:23;20.10;99.90
73477;DHT22;61713;51.034;13.756;2022-07-31T06:40:49;20.20;99.90
73477;DHT22;61713;51.034;13.756;2022-07-31T06:43:16;20.50;99.90
73477;DHT22;61713;51.034;13.756;2022-07-31T06:45:41;20.50;99.90
73477;DHT22;61713;51.034;13.756;2022-07-31T06:48:11;20.50;99.90
73477;DHT22;61713;51.034;13.756;2022-07-31T06:50:36;20.60;99.90
73477;DHT22;61713;51.034;13.756;2022-07-31T06:53:02;20.80;99.90
73477;DHT22;61713;51.034;13.756;2022-07-31T06:55:27;21.10;99.90
73477;DHT22;61713;51.034;13.756;2022-07-31T06:57:52;21.10;99.90
73477;DHT22;61713;51.034;13.756;2022-07-31T07:00:18;21.00;99.90
73477;DHT22;61713;51.034;13.756;2022-07-31T07:02:44;20.70;99.90
73477;DHT22;61713;51.034;13.756;2022-07-31T07:05:10;21.10;99.90
73477;DHT22;61713;51.034;13.756;2022-07-31T07:07:36;21.10;99.90
73477;DHT22;61713;51.034;13.756;2022-07-31T07:10:01;21.20;99.90
73477;DHT22;61713;51.034;13.756;2022-07-31T07:12:27;21.40;99.90
73477;DHT22;61713;51.034;13.756;2022-07-31T07:14:52;21.40;99.90
73477;DHT22;61713;51.034;13.756;2022-07-31T07:17:18;21.40;99.90
73477;DHT22;61713;51.034;13.756;2022-07-31T07:19:43;21.50;99.90
73477;DHT22;61713;51.034;13.756;2022-07-31T07:22:09;21.60;99.90
73477;DHT22;61713;51.034;13.756;2022-07-31T07:24:34;21.70;99.90
73477;DHT22;61713;51.034;13.756;2022-07-31T07:27:00;21.90;99.90
73477;DHT22;61713;51.034;13.756;2022-07-31T07:29:25;22.00;99.90
73477;DHT22;61713;51.034;13.756;2022-07-31T07:31:51;22.00;99.90
73477;DHT22;61713;51.034;13.756;2022-07-31T07:34:16;21.80;99.90
73477;DHT22;61713;51.034;13.756;2022-07-31T07:36:42;21.90;99.90
73477;DHT22;61713;51.034;13.756;2022-07-31T07:39:08;21.80;99.90
73477;DHT22;61713;51.034;13.756;2022-07-31T07:41:33;22.00;99.90
73477;DHT22;61713;51.034;13.756;2022-07-31T07:43:59;22.00;99.90
73477;DHT22;61713;51.034;13.756;2022-07-31T07:46:24;22.30;99.90
73477;DHT22;61713;51.034;13.756;2022-07-31T07:48:50;22.10;99.90
73477;DHT22;61713;51.034;13.756;2022-07-31T07:51:16;22.20;99.90
73477;DHT22;61713;51.034;13.756;2022-07-31T07:53:41;22.20;99.90
73477;DHT22;61713;51.034;13.756;2022-07-31T07:56:07;22.30;99.90
73477;DHT22;61713;51.034;13.756;2022-07-31T07:58:32;22.50;99.90
73477;DHT22;61713;51.034;13.756;2022-07-31T08:00:58;22.50;99.90
73477;DHT22;61713;51.034;13.756;2022-07-31T08:03:23;22.50;99.90
73477;DHT22;61713;51.034;13.756;2022-07-31T08:05:49;22.70;99.90
73477;DHT22;61713;51.034;13.756;2022-07-31T08:08:14;22.80;99.90
73477;DHT22;61713;51.034;13.756;2022-07-31T08:10:40;23.10;99.90
73477;DHT22;61713;51.034;13.756;2022-07-31T08:13:05;22.80;99.90
73477;DHT22;61713;51.034;13.756;2022-07-31T08:15:31;22.90;99.90
73477;DHT22;61713;51.034;13.756;2022-07-31T08:17:56;23.20;99.90
73477;DHT22;61713;51.034;13.756;2022-07-31T08:20:22;23.20;99.90
73477;DHT22;61713;51.034;13.756;2022-07-31T08:22:47;23.30;99.90
73477;DHT22;61713;51.034;13.756;2022-07-31T08:25:13;23.20;99.90
73477;DHT22;61713;51.034;13.756;2022-07-31T08:27:38;23.30;99.90
73477;DHT22;61713;51.034;13.756;2022-07-31T08:30:04;23.00;99.90
73477;DHT22;61713;51.034;13.756;2022-07-31T08:32:30;23.20;99.90
73477;DHT22;61713;51.034;13.756;2022-07-31T08:34:55;23.20;99.90
73477;DHT22;61713;51.034;13.756;2022-07-31T08:37:21;23.30;99.90
73477;DHT22;61713;51.034;13.756;2022-07-31T08:39:48;23.30;99.90
73477;DHT22;61713;51.034;13.756;2022-07-31T08:42:15;23.30;99.90
73477;DHT22;61713;51.034;13.756;2022-07-31T08:44:42;23.50;99.90
73477;DHT22;61713;51.034;13.756;2022-07-31T08:47:09;23.40;99.90
73477;DHT22;61713;51.034;13.756;2022-07-31T08:49:43;23.70;99.90
73477;DHT22;61713;51.034;13.756;2022-07-31T08:52:12;23.80;99.90
73477;DHT22;61713;51.034;13.756;2022-07-31T08:54:42;23.60;99.90
73477;DHT22;61713;51.034;13.756;2022-07-31T08:57:08;23.70;99.90
73477;DHT22;61713;51.034;13.756;2022-07-31T08:59:36;23.70;99.90
73477;DHT22;61713;51.034;13.756;2022-07-31T09:02:01;23.80;99.90
73477;DHT22;61713;51.034;13.756;2022-07-31T09:04:30;23.90;99.90
73477;DHT22;61713;51.034;13.756;2022-07-31T09:06:55;23.80;99.90
73477;DHT22;61713;51.034;13.756;2022-07-31T09:09:24;23.90;99.90
73477;DHT22;61713;51.034;13.756;2022-07-31T09:11:50;24.00;99.90
73477;DHT22;61713;51.034;13.756;2022-07-31T09:14:29;24.20;99.90
73477;DHT22;61713;51.034;13.756;2022-07-31T09:16:56;23.80;99.90
73477;DHT22;61713;51.034;13.756;2022-07-31T09:19:38;23.90;99.90
73477;DHT22;61713;51.034;13.756;2022-07-31T09:22:04;24.10;99.90
73477;DHT22;61713;51.034;13.756;2022-07-31T09:24:32;24.20;99.90
73477;DHT22;61713;51.034;13.756;2022-07-31T09:27:03;24.30;99.90
73477;DHT22;61713;51.034;13.756;2022-07-31T09:32:15;24.40;99.90
73477;DHT22;61713;51.034;13.756;2022-07-31T09:34:42;24.70;99.90
73477;DHT22;61713;51.034;13.756;2022-07-31T09:37:09;24.70;99.90
73477;DHT22;61713;51.034;13.756;2022-07-31T09:39:36;24.80;99.90
73477;DHT22;61713;51.034;13.756;2022-07-31T09:42:02;24.90;99.90
73477;DHT22;61713;51.034;13.756;2022-07-31T09:44:38;25.30;99.90
73477;DHT22;61713;51.034;13.756;2022-07-31T09:47:04;25.10;99.90
73477;DHT22;61713;51.034;13.756;2022-07-31T09:49:31;25.20;99.90
73477;DHT22;61713;51.034;13.756;2022-07-31T09:51:57;25.30;99.90
73477;DHT22;61713;51.034;13.756;2022-07-31T09:54:26;25.00;99.90
73477;DHT22;61713;51.034;13.756;2022-07-31T09:56:52;25.00;99.90
73477;DHT22;61713;51.034;13.756;2022-07-31T09:59:17;24.70;99.70
73477;DHT22;61713;51.034;13.756;2022-07-31T10:01:45;24.80;99.90
73477;DHT22;61713;51.034;13.756;2022-07-31T10:04:13;25.20;99.10
73477;DHT22;61713;51.034;13.756;2022-07-31T10:06:40;25.60;98.40
73477;DHT22;61713;51.034;13.756;2022-07-31T10:09:06;25.40;99.10
73477;DHT22;61713;51.034;13.756;2022-07-31T10:11:32;25.30;99.30
73477;DHT22;61713;51.034;13.756;2022-07-31T10:14:00;25.70;98.70
73477;DHT22;61713;51.034;13.756;2022-07-31T10:16:28;25.60;98.30
73477;DHT22;61713;51.034;13.756;2022-07-31T10:18:58;25.60;97.80
73477;DHT22;61713;51.034;13.756;2022-07-31T10:21:31;25.50;97.70
73477;DHT22;61713;51.034;13.756;2022-07-31T10:23:58;25.70;97.80
73477;DHT22;61713;51.034;13.756;2022-07-31T10:26:24;25.70;97.50
73477;DHT22;61713;51.034;13.756;2022-07-31T10:28:50;26.00;96.70
73477;DHT22;61713;51.034;13.756;2022-07-31T10:31:16;26.10;96.50
73477;DHT22;61713;51.034;13.756;2022-07-31T10:33:42;26.40;96.40
73477;DHT22;61713;51.034;13.756;2022-07-31T10:36:20;26.10;96.40
73477;DHT22;61713;51.034;13.756;2022-07-31T10:39:07;26.00;96.70
73477;DHT22;61713;51.034;13.756;2022-07-31T10:44:10;26.20;96.40
73477;DHT22;61713;51.034;13.756;2022-07-31T10:46:37;26.20;96.50
73477;DHT22;61713;51.034;13.756;2022-07-31T10:49:03;26.30;96.20
73477;DHT22;61713;51.034;13.756;2022-07-31T10:51:28;26.70;95.70
73477;DHT22;61713;51.034;13.756;2022-07-31T10:53:58;26.10;96.20
73477;DHT22;61713;51.034;13.756;2022-07-31T10:56:25;26.20;95.80
73477;DHT22;61713;51.034;13.756;2022-07-31T10:58:53;26.30;95.60
73477;DHT22;61713;51.034;13.756;2022-07-31T11:01:19;26.40;95.90
73477;DHT22;61713;51.034;13.756;2022-07-31T11:03:47;26.70;95.00
73477;DHT22;61713;51.034;13.756;2022-07-31T11:06:15;26.70;94.30
73477;DHT22;61713;51.034;13.756;2022-07-31T11:08:45;26.20;94.80
73477;DHT22;61713;51.034;13.756;2022-07-31T11:11:12;26.10;95.50
73477;DHT22;61713;51.034;13.756;2022-07-31T11:13:51;26.90;95.00
73477;DHT22;61713;51.034;13.756;2022-07-31T11:16:18;27.20;94.20
73477;DHT22;61713;51.034;13.756;2022-07-31T11:18:58;26.80;93.70
73477;DHT22;61713;51.034;13.756;2022-07-31T11:21:32;26.00;93.90
73477;DHT22;61713;51.034;13.756;2022-07-31T11:23:58;26.30;94.20
73477;DHT22;61713;51.034;13.756;2022-07-31T11:26:24;26.10;94.00
73477;DHT22;61713;51.034;13.756;2022-07-31T11:28:49;26.10;94.10
73477;DHT22;61713;51.034;13.756;2022-07-31T11:31:15;25.90;94.20
73477;DHT22;61713;51.034;13.756;2022-07-31T11:33:41;26.50;93.60
73477;DHT22;61713;51.034;13.756;2022-07-31T11:36:18;26.70;93.50
73477;DHT22;61713;51.034;13.756;2022-07-31T11:38:50;26.80;93.50
73477;DHT22;61713;51.034;13.756;2022-07-31T11:41:17;26.50;94.20
73477;DHT22;61713;51.034;13.756;2022-07-31T11:43:50;26.30;93.70
73477;DHT22;61713;51.034;13.756;2022-07-31T11:46:27;26.40;94.00
73477;DHT22;61713;51.034;13.756;2022-07-31T11:48:54;26.60;94.00
73477;DHT22;61713;51.034;13.756;2022-07-31T11:51:21;26.30;93.90
73477;DHT22;61713;51.034;13.756;2022-07-31T11:53:48;26.20;93.00
73477;DHT22;61713;51.034;13.756;2022-07-31T11:56:18;26.60;92.40
73477;DHT22;61713;51.034;13.756;2022-07-31T11:58:50;26.50;92.40
73477;DHT22;61713;51.034;13.756;2022-07-31T12:01:16;26.60;93.10
73477;DHT22;61713;51.034;13.756;2022-07-31T12:03:42;27.10;92.50
73477;DHT22;61713;51.034;13.756;2022-07-31T12:06:09;26.20;92.80
73477;DHT22;61713;51.034;13.756;2022-07-31T12:08:35;26.50;93.00
73477;DHT22;61713;51.034;13.756;2022-07-31T12:11:02;26.20;92.90
73477;DHT22;61713;51.034;13.756;2022-07-31T12:13:29;26.40;92.50
73477;DHT22;61713;51.034;13.756;2022-07-31T12:16:00;26.30;91.90
73477;DHT22;61713;51.034;13.756;2022-07-31T12:18:30;26.20;91.30
73477;DHT22;61713;51.034;13.756;2022-07-31T12:21:02;26.60;91.10
73477;DHT22;61713;51.034;13.756;2022-07-31T12:23:46;26.70;90.70
73477;DHT22;61713;51.034;13.756;2022-07-31T12:26:32;26.80;90.30
73477;DHT22;61713;51.034;13.756;2022-07-31T12:29:05;26.80;90.10
73477;DHT22;61713;51.034;13.756;2022-07-31T12:34:08;27.60;88.20
73477;DHT22;61713;51.034;13.756;2022-07-31T12:36:34;27.80;89.50
73477;DHT22;61713;51.034;13.756;2022-07-31T12:39:01;27.90;91.10
73477;DHT22;61713;51.034;13.756;2022-07-31T12:41:28;27.50;90.70
73477;DHT22;61713;51.034;13.756;2022-07-31T12:43:53;27.70;90.40
73477;DHT22;61713;51.034;13.756;2022-07-31T12:46:20;27.50;89.20
73477;DHT22;61713;51.034;13.756;2022-07-31T12:48:46;27.30;90.40
73477;DHT22;61713;51.034;13.756;2022-07-31T12:51:12;27.00;89.90
73477;DHT22;61713;51.034;13.756;2022-07-31T12:53:37;27.10;89.40
73477;DHT22;61713;51.034;13.756;2022-07-31T13:00:55;28.40;96.10
73477;DHT22;61713;51.034;13.756;2022-07-31T13:03:21;29.00;79.60
73477;DHT22;61713;51.034;13.756;2022-07-31T13:05:47;30.50;69.40
73477;DHT22;61713;51.034;13.756;2022-07-31T13:08:12;31.40;66.00
73477;DHT22;61713;51.034;13.756;2022-07-31T13:10:38;31.10;65.90
73477;DHT22;61713;51.034;13.756;2022-07-31T13:13:04;29.70;68.90
73477;DHT22;61713;51.034;13.756;2022-07-31T13:15:30;30.70;67.50
73477;DHT22;61713;51.034;13.756;2022-07-31T13:17:56;31.70;63.20
73477;DHT22;61713;51.034;13.756;2022-07-31T13:20:22;33.10;61.00
73477;DHT22;61713;51.034;13.756;2022-07-31T13:22:48;33.00;60.10
73477;DHT22;61713;51.034;13.756;2022-07-31T13:25:13;34.70;60.00
73477;DHT22;61713;51.034;13.756;2022-07-31T13:27:39;35.30;56.30
73477;DHT22;61713;51.034;13.756;2022-07-31T13:30:06;35.30;55.90
73477;DHT22;61713;51.034;13.756;2022-07-31T13:32:32;34.80;57.40
73477;DHT22;61713;51.034;13.756;2022-07-31T13:34:57;35.40;56.30
73477;DHT22;61713;51.034;13.756;2022-07-31T13:37:23;35.20;55.30
73477;DHT22;61713;51.034;13.756;2022-07-31T13:39:48;34.80;55.10
73477;DHT22;61713;51.034;13.756;2022-07-31T13:42:14;35.40;52.70
73477;DHT22;61713;51.034;13.756;2022-07-31T13:44:39;36.70;53.80
73477;DHT22;61713;51.034;13.756;2022-07-31T13:47:05;37.40;52.00
73477;DHT22;61713;51.034;13.756;2022-07-31T13:49:30;36.20;52.60
73477;DHT22;61713;51.034;13.756;2022-07-31T13:51:59;35.50;53.10
73477;DHT22;61713;51.034;13.756;2022-07-31T13:54:26;36.20;52.20
73477;DHT22;61713;51.034;13.756;2022-07-31T13:56:52;37.40;52.00
73477;DHT22;61713;51.034;13.756;2022-07-31T13:59:18;36.00;49.50
73477;DHT22;61713;51.034;13.756;2022-07-31T14:04:11;32.30;83.80
73477;DHT22;61713;51.034;13.756;2022-07-31T14:06:36;33.40;56.10
73477;DHT22;61713;51.034;13.756;2022-07-31T14:09:02;33.50;55.10
73477;DHT22;61713;51.034;13.756;2022-07-31T14:11:27;34.20;52.90
73477;DHT22;61713;51.034;13.756;2022-07-31T14:13:53;35.30;53.00
73477;DHT22;61713;51.034;13.756;2022-07-31T14:16:18;34.80;53.20
73477;DHT22;61713;51.034;13.756;2022-07-31T14:18:44;35.10;63.70
73477;DHT22;61713;51.034;13.756;2022-07-31T14:21:09;37.80;62.00
73477;DHT22;61713;51.034;13.756;2022-07-31T14:23:35;40.20;42.70
73477;DHT22;61713;51.034;13.756;2022-07-31T14:26:00;37.00;45.00
73477;DHT22;61713;51.034;13.756;2022-07-31T14:28:27;36.30;45.60
73477;DHT22;61713;51.034;13.756;2022-07-31T14:30:52;36.50;45.30
73477;DHT22;61713;51.034;13.756;2022-07-31T14:33:18;37.10;43.70
73477;DHT22;61713;51.034;13.756;2022-07-31T14:35:43;35.40;45.30
73477;DHT22;61713;51.034;13.756;2022-07-31T14:38:09;33.80;47.50
73477;DHT22;61713;51.034;13.756;2022-07-31T14:40:35;33.60;48.10
73477;DHT22;61713;51.034;13.756;2022-07-31T14:43:00;33.10;47.50
73477;DHT22;61713;51.034;13.756;2022-07-31T14:45:26;33.50;47.50
73477;DHT22;61713;51.034;13.756;2022-07-31T14:47:52;34.40;46.70
73477;DHT22;61713;51.034;13.756;2022-07-31T14:50:19;33.70;46.90
73477;DHT22;61713;51.034;13.756;2022-07-31T14:52:45;33.50;46.90
73477;DHT22;61713;51.034;13.756;2022-07-31T14:55:10;34.20;46.20
73477;DHT22;61713;51.034;13.756;2022-07-31T14:57:36;35.40;45.30
73477;DHT22;61713;51.034;13.756;2022-07-31T15:00:02;35.30;45.00
73477;DHT22;61713;51.034;13.756;2022-07-31T15:02:27;35.60;44.40
73477;DHT22;61713;51.034;13.756;2022-07-31T15:04:53;35.90;43.80
73477;DHT22;61713;51.034;13.756;2022-07-31T15:07:19;36.30;43.10
73477;DHT22;61713;51.034;13.756;2022-07-31T15:09:44;34.50;43.90
73477;DHT22;61713;51.034;13.756;2022-07-31T15:12:09;34.70;43.20
73477;DHT22;61713;51.034;13.756;2022-07-31T15:14:41;35.20;43.20
73477;DHT22;61713;51.034;13.756;2022-07-31T15:17:06;35.40;43.20
73477;DHT22;61713;51.034;13.756;2022-07-31T15:19:32;33.70;44.30
73477;DHT22;61713;51.034;13.756;2022-07-31T15:21:57;34.50;44.20
73477;DHT22;61713;51.034;13.756;2022-07-31T15:24:22;35.70;42.60
73477;DHT22;61713;51.034;13.756;2022-07-31T15:26:48;35.10;42.60
73477;DHT22;61713;51.034;13.756;2022-07-31T15:29:14;35.70;42.40
73477;DHT22;61713;51.034;13.756;2022-07-31T15:31:39;37.40;41.60
73477;DHT22;61713;51.034;13.756;2022-07-31T15:34:05;37.80;40.90